Time;durP1;ratioP1;P1;durP2;ratioP2;P2;SDS_P1;SDS_P2;PMS_P1;PMS_P2;Temp;Humidity;BMP_temperature;BMP_pressure;BME280_temperature;BME280_humidity;BME280_pressure;Samples;Min_cycle;Max_cycle;Signal;HPM_P1;HPM_P2
2022/05/12 06:25:06;;;;;;;;;;;;;;;;;;5115992;27;19919;-70
2022/05/12 06:27:31;;;;;;;;;;;;;;;;;;5092199;28;19919;-70
2022/05/12 06:29:57;;;;;;;;;;;;;;;;;;5091746;28;20003;-78
2022/05/12 06:32:23;;;;;;;;;;;;;;;;;;5108841;28;19915;-70
2022/05/12 06:34:49;;;;;;;;;;;;;;;;;;5102467;28;20379;-70
2022/05/12 06:37:16;;;;;;;;;;;;;;;;;;5080699;28;20306;-70
2022/05/12 06:39:42;;;;;;;;;;;;;;;;;;5110598;28;19908;-69
2022/05/12 06:42:08;;;;;;;;;;;;;;;;;;5106679;28;19908;-68
2022/05/12 06:44:34;;;;;;;;;;;;;;;;;;5110456;28;19930;-68
2022/05/12 06:47:01;;;;;;;;;;;;;;;;;;5111886;28;20360;-68
2022/05/12 06:49:28;;;;;;;;;;;;;;;;;;5104436;28;19915;-68
2022/05/12 06:51:55;;;;;;;;;;;;;;;;;;5088296;28;19919;-68
2022/05/12 06:54:22;;;;;;;;;;;;;;;;;;5073391;28;19916;-67
2022/05/12 06:56:48;;;;;;;;;;;;;;;;;;5100190;28;19912;-67
2022/05/12 06:59:15;;;;;;;;;;;;;;;;;;5092438;28;20003;-66
2022/05/12 07:01:41;;;;;;;;;;;;;;;;;;5088103;28;19993;-68
2022/05/12 07:04:07;;;;;;;;;;;;;;;;;;5088685;28;19990;-67
2022/05/12 07:06:32;;;;;;;;;;;;;;;;;;5089624;28;19920;-67
2022/05/12 07:08:58;;;;;;;;;;;;;;;;;;5103014;28;19908;-69
2022/05/12 07:11:24;;;;;;;;;;;;;;;;;;5108553;28;19915;-68
2022/05/12 07:13:50;;;;;;;;;;;;;;;;;;5108349;28;19915;-71
2022/05/12 07:16:16;;;;;;;;;;;;;;;;;;5110953;28;19908;-68
2022/05/12 07:18:42;;;;;;;;;;;;;;;;;;5110854;28;19914;-69
2022/05/12 07:26:40;;;;;;;;;;;;;;;;;;5109516;28;20383;-70
2022/05/12 07:29:06;;;;;;;;;;;;;;;;;;5108959;28;19930;-69
2022/05/12 07:31:32;;;;;;;;;;;;;;;;;;5109349;28;20411;-69
2022/05/12 07:33:58;;;;;;;;;;;;;;;;;;5108170;28;19916;-69
2022/05/12 07:36:25;;;;;;;;;;;;;;;;;;5095611;28;19910;-69
2022/05/12 07:38:51;;;;;;;;;;;;;;;;;;5095947;28;19904;-69
2022/05/12 07:41:17;;;;;;;;;;;;;;;;;;5095122;28;19953;-69
2022/05/12 07:43:43;;;;;;;;;;;;;;;;;;5095716;28;19909;-69
2022/05/12 07:46:09;;;;;;;;;;;;;;;;;;5095156;28;19908;-69
2022/05/12 07:48:35;;;;;;;;;;;;;;;;;;5077717;28;19915;-69
2022/05/12 07:51:01;;;;;;;;;;;;;;;;;;5094906;28;19947;-70
2022/05/12 07:53:26;;;;;;;;;;;;;;;;;;5077493;28;19934;-69
2022/05/12 07:55:53;;;;;;;;;;;;;;;;;;5095665;28;19904;-69
2022/05/12 07:58:18;;;;;;;;;;;;;;;;;;5095115;28;19904;-69
2022/05/12 08:00:44;;;;;;;;;;;;;;;;;;5095957;28;19911;-69
2022/05/12 08:03:10;;;;;;;;;;;;;;;;;;5094965;28;19908;-69
2022/05/12 08:05:36;;;;;;;;;;;;;;;;;;5095659;28;20317;-70
2022/05/12 08:08:03;;;;;;;;;;;;;;;;;;5094628;28;19904;-70
2022/05/12 08:10:29;;;;;;;;;;;;;;;;;;5095567;28;19904;-69
2022/05/12 08:12:56;;;;;;;;;;;;;;;;;;5095201;28;19904;-69
2022/05/12 08:15:25;;;;;;;;;;;;;;;;;;5094662;28;20003;-69
2022/05/12 08:17:51;;;;;;;;;;;;;;;;;;5095329;28;20336;-69
2022/05/12 08:20:16;;;;;;;;;;;;;;;;;;5094678;28;19904;-69
2022/05/12 08:22:42;;;;;;;;;;;;;;;;;;5094954;28;19920;-69
2022/05/12 08:25:08;;;;;;;;;;;;;;;;;;5094949;28;19958;-70
2022/05/12 08:27:34;;;;;;;;;;;;;;;;;;5077026;28;20251;-69
2022/05/12 08:30:00;;;;;;;;;;;;;;;;;;5077096;28;19911;-69
2022/05/12 08:32:26;;;;;;;;;;;;;;;;;;5094427;28;19995;-69
2022/05/12 08:34:52;;;;;;;;;;;;;;;;;;5094995;28;19943;-69
2022/05/12 08:37:18;;;;;;;;;;;;;;;;;;5094685;28;20245;-70
2022/05/12 08:39:45;;;;;;;;;;;;;;;;;;5094585;28;20340;-69
2022/05/12 08:42:11;;;;;;;;;;;;;;;;;;5076178;28;20298;-70
2022/05/12 08:44:36;;;;;;;;;;;;;;;;;;5076399;28;19912;-70
2022/05/12 08:47:02;;;;;;;;;;;;;;;;;;5093780;28;19904;-69
2022/05/12 08:49:28;;;;;;;;;;;;;;;;;;5076892;28;19904;-69
2022/05/12 08:51:54;;;;;;;;;;;;;;;;;;5094610;28;20409;-70
2022/05/12 08:54:22;;;;;;;;;;;;;;;;;;5093568;28;19912;-69
2022/05/12 08:56:48;;;;;;;;;;;;;;;;;;5094465;28;20019;-69
2022/05/12 08:59:14;;;;;;;;;;;;;;;;;;5093846;28;19965;-70
2022/05/12 09:01:39;;;;;;;;;;;;;;;;;;5094137;28;19915;-69
2022/05/12 09:04:06;;;;;;;;;;;;;;;;;;5093355;28;20021;-70
2022/05/12 09:06:32;;;;;;;;;;;;;;;;;;5094176;28;19999;-70
2022/05/12 09:08:58;;;;;;;;;;;;;;;;;;5094547;28;19919;-70
2022/05/12 09:11:24;;;;;;;;;;;;;;;;;;5093548;28;19908;-69
2022/05/12 09:13:50;;;;;;;;;;;;;;;;;;5075932;28;19908;-69
2022/05/12 09:16:16;;;;;;;;;;;;;;;;;;5093534;28;19915;-70
2022/05/12 09:18:42;;;;;;;;;;;;;;;;;;5094048;28;19916;-69
2022/05/12 09:21:07;;;;;;;;;;;;;;;;;;5093394;28;19999;-70
2022/05/12 09:23:35;;;;;;;;;;;;;;;;;;5093652;28;19966;-70
2022/05/12 09:26:01;;;;;;;;;;;;;;;;;;5093863;28;19915;-70
2022/05/12 09:28:27;;;;;;;;;;;;;;;;;;5093213;28;20276;-70
2022/05/12 09:30:53;;;;;;;;;;;;;;;;;;5093812;28;19913;-70
2022/05/12 09:33:19;;;;;;;;;;;;;;;;;;5074985;28;20423;-70
2022/05/12 09:35:44;;;;;;;;;;;;;;;;;;5093840;28;19944;-69
2022/05/12 09:38:10;;;;;;;;;;;;;;;;;;5093096;28;19908;-70
2022/05/12 09:40:37;;;;;;;;;;;;;;;;;;5093673;28;19915;-70
2022/05/12 09:43:02;;;;;;;;;;;;;;;;;;5093577;28;19934;-70
2022/05/12 09:45:28;;;;;;;;;;;;;;;;;;5074723;28;19948;-69
2022/05/12 09:47:54;;;;;;;;;;;;;;;;;;5093575;28;19963;-70
2022/05/12 09:50:21;;;;;;;;;;;;;;;;;;5092869;28;19939;-70
2022/05/12 09:52:47;;;;;;;;;;;;;;;;;;5093295;28;19959;-70
2022/05/12 09:55:12;;;;;;;;;;;;;;;;;;5092848;28;19947;-69
2022/05/12 09:57:38;;;;;;;;;;;;;;;;;;5093132;28;20371;-69
2022/05/12 10:00:07;;;;;;;;;;;;;;;;;;5093101;28;19962;-69
2022/05/12 10:08:09;;;;;;;;;;;;;;;;;;5092411;28;19916;-70
2022/05/12 10:10:35;;;;;;;;;;;;;;;;;;5093236;28;19908;-70
2022/05/12 10:13:01;;;;;;;;;;;;;;;;;;5093181;28;19908;-69
2022/05/12 10:15:27;;;;;;;;;;;;;;;;;;5092518;28;19908;-70
2022/05/12 10:17:53;;;;;;;;;;;;;;;;;;5093147;28;19908;-70
2022/05/12 10:20:19;;;;;;;;;;;;;;;;;;5092585;28;19915;-70
2022/05/12 10:22:45;;;;;;;;;;;;;;;;;;5092655;28;19968;-70
2022/05/12 10:25:11;;;;;;;;;;;;;;;;;;5092485;28;19908;-70
2022/05/12 10:27:37;;;;;;;;;;;;;;;;;;5092683;28;20313;-70
2022/05/12 10:30:03;;;;;;;;;;;;;;;;;;5074947;28;20010;-69
2022/05/12 10:32:29;;;;;;;;;;;;;;;;;;5092387;28;19908;-70
2022/05/12 10:34:55;;;;;;;;;;;;;;;;;;5092969;28;19911;-69
2022/05/12 10:37:21;;;;;;;;;;;;;;;;;;5092341;28;20406;-69
2022/05/12 10:39:47;;;;;;;;;;;;;;;;;;5092965;28;19908;-69
2022/05/12 10:42:13;;;;;;;;;;;;;;;;;;5092332;28;19908;-70
2022/05/12 10:44:39;;;;;;;;;;;;;;;;;;5092654;28;19920;-69
2022/05/12 10:47:05;;;;;;;;;;;;;;;;;;5092909;28;20265;-69
2022/05/12 10:49:30;;;;;;;;;;;;;;;;;;5092259;28;19920;-69
2022/05/12 10:51:56;;;;;;;;;;;;;;;;;;5092857;28;19943;-69
2022/05/12 10:54:22;;;;;;;;;;;;;;;;;;5091928;28;19919;-69
2022/05/12 10:56:48;;;;;;;;;;;;;;;;;;5092940;28;20347;-69
2022/05/12 10:59:14;;;;;;;;;;;;;;;;;;5092211;28;19909;-69
2022/05/12 11:01:40;;;;;;;;;;;;;;;;;;5092754;28;19915;-69
2022/05/12 11:04:06;;;;;;;;;;;;;;;;;;5092629;28;20437;-69
2022/05/12 11:06:32;;;;;;;;;;;;;;;;;;5092122;28;19913;-69
2022/05/12 11:08:58;;;;;;;;;;;;;;;;;;5093018;28;20005;-69
2022/05/12 11:11:24;;;;;;;;;;;;;;;;;;5095504;28;20368;-69
2022/05/12 11:13:49;;;;;;;;;;;;;;;;;;5078197;28;19995;-69
2022/05/12 11:16:15;;;;;;;;;;;;;;;;;;5095896;28;19963;-69
2022/05/12 11:18:41;;;;;;;;;;;;;;;;;;5096383;28;19908;-69
2022/05/12 11:21:07;;;;;;;;;;;;;;;;;;5096010;28;20342;-69
2022/05/12 11:23:33;;;;;;;;;;;;;;;;;;5095202;28;19928;-69
2022/05/12 11:25:59;;;;;;;;;;;;;;;;;;5096273;28;19908;-70
2022/05/12 11:31:10;;;;;;;;;;;;;;;;;;5095939;28;19959;-69
2022/05/12 11:33:36;;;;;;;;;;;;;;;;;;5095442;28;19908;-69
2022/05/12 11:36:02;;;;;;;;;;;;;;;;;;5096018;28;19916;-69
2022/05/12 11:38:28;;;;;;;;;;;;;;;;;;5095413;28;19912;-69
2022/05/12 11:40:54;;;;;;;;;;;;;;;;;;5095960;28;19964;-69
2022/05/12 11:46:04;;;;;;;;;;;;;;;;;;5095563;28;19914;-69
2022/05/12 11:48:30;;;;;;;;;;;;;;;;;;5095174;28;20003;-69
2022/05/12 11:50:56;;;;;;;;;;;;;;;;;;5095698;28;20287;-69
2022/05/12 11:53:22;;;;;;;;;;;;;;;;;;5095129;28;19923;-69
2022/05/12 11:55:48;;;;;;;;;;;;;;;;;;5095791;28;19919;-69
2022/05/12 11:58:14;;;;;;;;;;;;;;;;;;5095649;28;20356;-69
2022/05/12 12:00:44;;;;;;;;;;;;;;;;;;5095583;28;20043;-69
2022/05/12 12:03:10;;;;;;;;;;;;;;;;;;5095487;28;19916;-69
2022/05/12 12:05:36;;;;;;;;;;;;;;;;;;5094631;28;19912;-69
2022/05/12 12:08:02;;;;;;;;;;;;;;;;;;5095487;28;19914;-69
2022/05/12 12:10:28;;;;;;;;;;;;;;;;;;5094822;28;20014;-70
2022/05/12 12:12:54;;;;;;;;;;;;;;;;;;5077266;28;19958;-69
2022/05/12 12:15:20;;;;;;;;;;;;;;;;;;5094586;28;20344;-69
2022/05/12 12:17:46;;;;;;;;;;;;;;;;;;5095290;28;20241;-69
2022/05/12 12:20:12;;;;;;;;;;;;;;;;;;5095226;28;19908;-69
2022/05/12 12:22:38;;;;;;;;;;;;;;;;;;5094145;28;19916;-69
2022/05/12 12:25:04;;;;;;;;;;;;;;;;;;5094923;28;19912;-69
2022/05/12 12:27:30;;;;;;;;;;;;;;;;;;5094471;28;20370;-69
2022/05/12 12:29:56;;;;;;;;;;;;;;;;;;5095090;28;19961;-69
2022/05/12 12:32:22;;;;;;;;;;;;;;;;;;5094375;28;19939;-70
2022/05/12 12:34:47;;;;;;;;;;;;;;;;;;5094998;28;20314;-69
2022/05/12 12:37:13;;;;;;;;;;;;;;;;;;5094881;28;19908;-69
2022/05/12 12:39:39;;;;;;;;;;;;;;;;;;5094227;28;20361;-69
2022/05/12 12:42:05;;;;;;;;;;;;;;;;;;5089006;28;19914;-72
2022/05/12 12:44:31;;;;;;;;;;;;;;;;;;5091276;28;19942;-67
2022/05/12 12:46:58;;;;;;;;;;;;;;;;;;5094803;28;20328;-67
2022/05/12 12:49:24;;;;;;;;;;;;;;;;;;5094107;28;19951;-68
2022/05/12 12:51:50;;;;;;;;;;;;;;;;;;5094599;28;19915;-67
2022/05/12 12:57:05;;;;;;;;;;;;;;;;;;5065243;28;19935;-67
2022/05/12 12:59:33;;;;;;;;;;;;;;;;;;5093872;28;20245;-68
2022/05/12 13:02:00;;;;;;;;;;;;;;;;;;5094432;28;19908;-67
2022/05/12 13:04:26;;;;;;;;;;;;;;;;;;5075517;28;20276;-70
2022/05/12 13:06:52;;;;;;;;;;;;;;;;;;5094357;28;19908;-69
2022/05/12 13:09:18;;;;;;;;;;;;;;;;;;5094562;28;19912;-70
2022/05/12 13:11:44;;;;;;;;;;;;;;;;;;5076194;28;19908;-70
2022/05/12 13:14:11;;;;;;;;;;;;;;;;;;5075861;28;19915;-70
2022/05/12 13:16:37;;;;;;;;;;;;;;;;;;5093557;28;19908;-70
2022/05/12 13:19:03;;;;;;;;;;;;;;;;;;5094069;28;19915;-70
2022/05/12 13:21:28;;;;;;;;;;;;;;;;;;5093413;28;19912;-70
2022/05/12 13:23:54;;;;;;;;;;;;;;;;;;5093550;28;19974;-70
2022/05/12 13:26:20;;;;;;;;;;;;;;;;;;5093367;28;20271;-73
2022/05/12 13:28:46;;;;;;;;;;;;;;;;;;5093593;28;19909;-70
2022/05/12 13:31:13;;;;;;;;;;;;;;;;;;5093862;28;19955;-70
2022/05/12 13:33:38;;;;;;;;;;;;;;;;;;5092763;28;20348;-70
2022/05/12 13:36:04;;;;;;;;;;;;;;;;;;5093522;28;19916;-69
2022/05/12 13:38:31;;;;;;;;;;;;;;;;;;5093195;28;19934;-69
2022/05/12 13:40:57;;;;;;;;;;;;;;;;;;5093678;28;19930;-69
2022/05/12 13:43:23;;;;;;;;;;;;;;;;;;5092942;28;19917;-70
2022/05/12 13:45:50;;;;;;;;;;;;;;;;;;5093386;28;20001;-69
2022/05/12 13:48:16;;;;;;;;;;;;;;;;;;5093614;28;19908;-69
2022/05/12 13:50:42;;;;;;;;;;;;;;;;;;5092693;28;19916;-70
2022/05/12 13:53:08;;;;;;;;;;;;;;;;;;5093301;28;19928;-70
2022/05/12 13:55:34;;;;;;;;;;;;;;;;;;5092627;28;19959;-70
2022/05/12 13:58:00;;;;;;;;;;;;;;;;;;5093184;28;19908;-70
2022/05/12 14:00:26;;;;;;;;;;;;;;;;;;5092830;28;19914;-70
2022/05/12 14:02:52;;;;;;;;;;;;;;;;;;5093343;28;19916;-69
2022/05/12 14:05:17;;;;;;;;;;;;;;;;;;5093066;28;19908;-70
2022/05/12 14:07:43;;;;;;;;;;;;;;;;;;5092714;28;20239;-70
2022/05/12 14:10:09;;;;;;;;;;;;;;;;;;5093347;28;19934;-69
2022/05/12 14:12:35;;;;;;;;;;;;;;;;;;5092658;28;19916;-70
2022/05/12 14:20:31;;;;;;;;;;;;;;;;;;5092378;28;19930;-68
2022/05/12 14:22:57;;;;;;;;;;;;;;;;;;5092626;28;20376;-68
2022/05/12 14:25:25;;;;;;;;;;;;;;;;;;5092894;28;20367;-68
2022/05/12 14:27:51;;;;;;;;;;;;;;;;;;5093432;28;19908;-68
2022/05/12 14:30:17;;;;;;;;;;;;;;;;;;5093126;28;20434;-67
2022/05/12 14:32:43;;;;;;;;;;;;;;;;;;5092488;28;20303;-68
2022/05/12 14:35:09;;;;;;;;;;;;;;;;;;5092988;28;19908;-69
2022/05/12 14:37:35;;;;;;;;;;;;;;;;;;5092389;28;19912;-68
2022/05/12 14:40:01;;;;;;;;;;;;;;;;;;5092951;28;19960;-67
2022/05/12 14:42:27;;;;;;;;;;;;;;;;;;5091809;28;20323;-68
2022/05/12 14:44:53;;;;;;;;;;;;;;;;;;5093284;28;19916;-67
2022/05/12 14:47:19;;;;;;;;;;;;;;;;;;5096927;28;20280;-68
2022/05/12 14:49:48;;;;;;;;;;;;;;;;;;5096643;28;20267;-67
2022/05/12 14:52:14;;;;;;;;;;;;;;;;;;5096969;28;19908;-67
2022/05/12 14:54:43;;;;;;;;;;;;;;;;;;5096283;28;19923;-68
2022/05/12 14:57:09;;;;;;;;;;;;;;;;;;5078677;28;19957;-68
2022/05/12 14:59:35;;;;;;;;;;;;;;;;;;5096187;28;19912;-68
2022/05/12 15:02:01;;;;;;;;;;;;;;;;;;5078613;28;19914;-67
2022/05/12 15:04:27;;;;;;;;;;;;;;;;;;5095713;28;20280;-68
2022/05/12 15:06:53;;;;;;;;;;;;;;;;;;5096359;28;19908;-70
2022/05/12 15:09:19;;;;;;;;;;;;;;;;;;5078495;28;19908;-70
2022/05/12 15:11:45;;;;;;;;;;;;;;;;;;5096241;28;19939;-69
2022/05/12 15:14:11;;;;;;;;;;;;;;;;;;5078226;28;19954;-69
2022/05/12 15:16:36;;;;;;;;;;;;;;;;;;5095800;28;19999;-70
2022/05/12 15:19:02;;;;;;;;;;;;;;;;;;5096420;28;19908;-70
2022/05/12 15:21:28;;;;;;;;;;;;;;;;;;5077428;28;19919;-70
2022/05/12 15:23:54;;;;;;;;;;;;;;;;;;5096075;28;19990;-70
2022/05/12 15:26:20;;;;;;;;;;;;;;;;;;5096256;28;20401;-69
2022/05/12 15:28:46;;;;;;;;;;;;;;;;;;5095590;28;19908;-70
2022/05/12 15:31:12;;;;;;;;;;;;;;;;;;5096178;28;19942;-70
2022/05/12 15:33:38;;;;;;;;;;;;;;;;;;5095550;28;20144;-70
2022/05/12 15:36:04;;;;;;;;;;;;;;;;;;5096023;28;20311;-69
2022/05/12 15:38:30;;;;;;;;;;;;;;;;;;5095177;28;19994;-69
2022/05/12 15:40:55;;;;;;;;;;;;;;;;;;5096184;28;19959;-69
2022/05/12 15:43:21;;;;;;;;;;;;;;;;;;5095748;28;19956;-71
2022/05/12 15:45:47;;;;;;;;;;;;;;;;;;5095161;28;20157;-67
2022/05/12 15:48:13;;;;;;;;;;;;;;;;;;5095937;28;19954;-68
2022/05/12 15:50:39;;;;;;;;;;;;;;;;;;5095263;28;20026;-68
2022/05/12 15:53:05;;;;;;;;;;;;;;;;;;5077570;28;20404;-68
2022/05/12 15:55:31;;;;;;;;;;;;;;;;;;5094704;28;19908;-68
2022/05/12 15:57:57;;;;;;;;;;;;;;;;;;5095361;28;19943;-68
2022/05/12 16:00:23;;;;;;;;;;;;;;;;;;5095943;28;19908;-68
2022/05/12 16:02:49;;;;;;;;;;;;;;;;;;5094912;28;19916;-68
2022/05/12 16:05:15;;;;;;;;;;;;;;;;;;5095556;28;20257;-67
2022/05/12 16:07:40;;;;;;;;;;;;;;;;;;5094939;28;19949;-68
2022/05/12 16:10:06;;;;;;;;;;;;;;;;;;5095164;28;19908;-68
2022/05/12 16:12:35;;;;;;;;;;;;;;;;;;5094775;28;20407;-68
2022/05/12 16:15:09;;;;;;;;;;;;;;;;;;5094997;28;19961;-68
2022/05/12 16:17:35;;;;;;;;;;;;;;;;;;5094729;28;19916;-68
2022/05/12 16:20:01;;;;;;;;;;;;;;;;;;5095275;28;19930;-67
2022/05/12 16:22:27;;;;;;;;;;;;;;;;;;5095111;28;19908;-68
2022/05/12 16:24:53;;;;;;;;;;;;;;;;;;5094129;28;20380;-68
2022/05/12 16:27:19;;;;;;;;;;;;;;;;;;5095091;28;20007;-67
2022/05/12 16:29:45;;;;;;;;;;;;;;;;;;5094391;28;19913;-67
2022/05/12 16:32:11;;;;;;;;;;;;;;;;;;5076784;28;19908;-67
2022/05/12 16:34:38;;;;;;;;;;;;;;;;;;5093997;28;19953;-68
2022/05/12 16:37:03;;;;;;;;;;;;;;;;;;5094931;28;19912;-67
2022/05/12 16:39:29;;;;;;;;;;;;;;;;;;5094911;28;20428;-67
2022/05/12 16:41:55;;;;;;;;;;;;;;;;;;5094395;28;19908;-67
2022/05/12 16:44:22;;;;;;;;;;;;;;;;;;5076285;28;19916;-67
2022/05/12 16:46:49;;;;;;;;;;;;;;;;;;5094128;28;19930;-67
2022/05/12 16:49:22;;;;;;;;;;;;;;;;;;5094789;28;19908;-68
2022/05/12 16:51:48;;;;;;;;;;;;;;;;;;5094123;28;19915;-67
2022/05/12 16:54:14;;;;;;;;;;;;;;;;;;5091172;28;19969;-67
2022/05/12 16:56:39;;;;;;;;;;;;;;;;;;5087982;28;19912;-67
2022/05/12 16:59:05;;;;;;;;;;;;;;;;;;5074198;28;20372;-68
2022/05/12 17:01:31;;;;;;;;;;;;;;;;;;5084630;28;19919;-67
2022/05/12 17:03:57;;;;;;;;;;;;;;;;;;5062888;28;20411;-67
2022/05/12 17:06:23;;;;;;;;;;;;;;;;;;5074042;28;19908;-65
2022/05/12 17:08:49;;;;;;;;;;;;;;;;;;5079998;28;20310;-66
2022/05/12 17:11:15;;;;;;;;;;;;;;;;;;5087727;28;19919;-66
2022/05/12 17:13:41;;;;;;;;;;;;;;;;;;5087936;28;19915;-69
2022/05/12 17:16:07;;;;;;;;;;;;;;;;;;5093966;28;20347;-66
2022/05/12 17:18:35;;;;;;;;;;;;;;;;;;5090538;28;19912;-76
2022/05/12 17:21:03;;;;;;;;;;;;;;;;;;5090837;28;19908;-66
2022/05/12 17:23:29;;;;;;;;;;;;;;;;;;5093703;28;19932;-66
2022/05/12 17:25:55;;;;;;;;;;;;;;;;;;5093226;28;19934;-66
2022/05/12 17:28:21;;;;;;;;;;;;;;;;;;5093926;28;20006;-66
2022/05/12 17:30:47;;;;;;;;;;;;;;;;;;5085962;28;19935;-66
2022/05/12 17:33:16;;;;;;;;;;;;;;;;;;5080490;28;19916;-66
2022/05/12 17:35:42;;;;;;;;;;;;;;;;;;5088546;28;19938;-66
2022/05/12 17:38:08;;;;;;;;;;;;;;;;;;5091347;28;19912;-66
2022/05/12 17:40:35;;;;;;;;;;;;;;;;;;5075150;28;19908;-66
2022/05/12 17:43:01;;;;;;;;;;;;;;;;;;5092350;28;19908;-66
2022/05/12 17:45:27;;;;;;;;;;;;;;;;;;5092961;28;19908;-66
2022/05/12 17:47:53;;;;;;;;;;;;;;;;;;5090904;28;19912;-69
2022/05/12 17:50:20;;;;;;;;;;;;;;;;;;5093189;28;19908;-69
2022/05/12 17:52:46;;;;;;;;;;;;;;;;;;5092429;28;19963;-68
2022/05/12 17:55:12;;;;;;;;;;;;;;;;;;5074939;28;19954;-68
2022/05/12 17:57:38;;;;;;;;;;;;;;;;;;5087078;28;20010;-69
2022/05/12 18:00:04;;;;;;;;;;;;;;;;;;5086731;28;19917;-68
2022/05/12 18:02:30;;;;;;;;;;;;;;;;;;5092049;28;19909;-69
2022/05/12 18:04:56;;;;;;;;;;;;;;;;;;5090582;28;20295;-69
2022/05/12 18:07:22;;;;;;;;;;;;;;;;;;5093660;28;19908;-68
2022/05/12 18:09:47;;;;;;;;;;;;;;;;;;5092725;28;20317;-64
2022/05/12 18:12:13;;;;;;;;;;;;;;;;;;5093517;28;20045;-66
2022/05/12 18:14:39;;;;;;;;;;;;;;;;;;5092716;28;20261;-65
2022/05/12 18:17:05;;;;;;;;;;;;;;;;;;5088426;28;19913;-65
2022/05/12 18:19:31;;;;;;;;;;;;;;;;;;5078388;28;20311;-65
2022/05/12 18:21:57;;;;;;;;;;;;;;;;;;5085782;28;19912;-67
2022/05/12 18:24:23;;;;;;;;;;;;;;;;;;5093008;28;20356;-67
2022/05/12 18:26:49;;;;;;;;;;;;;;;;;;5090375;28;19919;-67
2022/05/12 18:29:15;;;;;;;;;;;;;;;;;;5092058;28;19931;-66
2022/05/12 18:31:41;;;;;;;;;;;;;;;;;;5073416;28;20328;-65
2022/05/12 18:34:07;;;;;;;;;;;;;;;;;;5092711;28;19908;-65
2022/05/12 18:36:33;;;;;;;;;;;;;;;;;;5085941;28;19912;-65
2022/05/12 18:38:59;;;;;;;;;;;;;;;;;;5074997;28;19916;-65
2022/05/12 18:41:25;;;;;;;;;;;;;;;;;;5072696;28;20332;-65
2022/05/12 18:43:51;;;;;;;;;;;;;;;;;;5064162;28;19917;-65
2022/05/12 18:46:17;;;;;;;;;;;;;;;;;;5091583;28;19908;-64
2022/05/12 18:48:43;;;;;;;;;;;;;;;;;;5075314;28;19908;-65
2022/05/12 18:51:09;;;;;;;;;;;;;;;;;;5084018;28;20272;-65
2022/05/12 18:53:35;;;;;;;;;;;;;;;;;;5078729;28;19920;-64
2022/05/12 18:56:01;;;;;;;;;;;;;;;;;;5081354;28;19920;-65
2022/05/12 18:58:27;;;;;;;;;;;;;;;;;;5091261;28;19947;-65
2022/05/12 19:00:53;;;;;;;;;;;;;;;;;;5090833;28;19959;-65
2022/05/12 19:03:20;;;;;;;;;;;;;;;;;;5077431;28;19963;-65
2022/05/12 19:05:46;;;;;;;;;;;;;;;;;;5090436;28;19908;-65
2022/05/12 19:08:12;;;;;;;;;;;;;;;;;;5091265;28;20379;-65
2022/05/12 19:10:38;;;;;;;;;;;;;;;;;;5091374;28;20392;-65
2022/05/12 19:13:04;;;;;;;;;;;;;;;;;;5084576;28;19912;-65
2022/05/12 19:15:30;;;;;;;;;;;;;;;;;;5079429;28;19915;-65
2022/05/12 19:17:56;;;;;;;;;;;;;;;;;;5070626;28;19908;-65
2022/05/12 19:20:22;;;;;;;;;;;;;;;;;;5070981;28;19908;-65
2022/05/12 19:22:48;;;;;;;;;;;;;;;;;;5083137;28;20003;-65
2022/05/12 19:25:14;;;;;;;;;;;;;;;;;;5088134;28;19916;-65
2022/05/12 19:27:40;;;;;;;;;;;;;;;;;;5082616;28;19998;-66
2022/05/12 19:30:06;;;;;;;;;;;;;;;;;;5071557;28;19947;-65
2022/05/12 19:32:33;;;;;;;;;;;;;;;;;;5084777;28;20263;-65
2022/05/12 19:34:59;;;;;;;;;;;;;;;;;;5080848;28;19912;-66
2022/05/12 19:37:24;;;;;;;;;;;;;;;;;;5074759;28;20284;-65
2022/05/12 19:39:52;;;;;;;;;;;;;;;;;;5091735;28;19974;-64
2022/05/12 19:42:20;;;;;;;;;;;;;;;;;;5082392;28;19916;-65
2022/05/12 19:44:46;;;;;;;;;;;;;;;;;;5083992;28;19912;-65
2022/05/12 19:47:17;;;;;;;;;;;;;;;;;;5095375;28;20112;-64
2022/05/12 19:49:43;;;;;;;;;;;;;;;;;;5095409;28;19908;-65
2022/05/12 19:52:09;;;;;;;;;;;;;;;;;;5093562;28;19912;-64
2022/05/12 19:54:34;;;;;;;;;;;;;;;;;;5088053;28;20383;-64
2022/05/12 19:57:00;;;;;;;;;;;;;;;;;;5079094;28;19908;-65
2022/05/12 19:59:26;;;;;;;;;;;;;;;;;;5074056;28;20477;-65
2022/05/12 20:01:52;;;;;;;;;;;;;;;;;;5073624;28;19915;-65
2022/05/12 20:04:18;;;;;;;;;;;;;;;;;;5073604;28;20519;-65
2022/05/12 20:06:44;;;;;;;;;;;;;;;;;;5073575;28;19920;-67
2022/05/12 20:09:10;;;;;;;;;;;;;;;;;;5073957;28;19955;-66
2022/05/12 20:11:36;;;;;;;;;;;;;;;;;;5075427;28;19997;-66
2022/05/12 20:14:03;;;;;;;;;;;;;;;;;;5081320;28;20058;-66
2022/05/12 20:16:29;;;;;;;;;;;;;;;;;;5073895;28;19935;-65
2022/05/12 20:18:55;;;;;;;;;;;;;;;;;;5072768;28;19931;-66
2022/05/12 20:21:20;;;;;;;;;;;;;;;;;;5080202;28;19978;-66
2022/05/12 20:23:46;;;;;;;;;;;;;;;;;;5083195;28;19930;-66
2022/05/12 20:26:13;;;;;;;;;;;;;;;;;;5072937;28;19909;-66
2022/05/12 20:28:39;;;;;;;;;;;;;;;;;;5090633;28;19939;-66
2022/05/12 20:31:05;;;;;;;;;;;;;;;;;;5093165;28;19991;-66
2022/05/12 20:33:31;;;;;;;;;;;;;;;;;;5094057;28;19908;-66
2022/05/12 20:35:57;;;;;;;;;;;;;;;;;;5092913;28;19908;-66
2022/05/12 20:38:25;;;;;;;;;;;;;;;;;;5093287;28;20280;-65
2022/05/12 20:40:53;;;;;;;;;;;;;;;;;;5093021;28;19958;-65
2022/05/12 20:43:19;;;;;;;;;;;;;;;;;;5086361;28;19924;-65
2022/05/12 20:46:02;;;;;;;;;;;;;;;;;;5079292;28;19908;-65
2022/05/12 20:48:28;;;;;;;;;;;;;;;;;;5094514;28;19908;-65
2022/05/12 20:50:55;;;;;;;;;;;;;;;;;;5092950;28;19958;-65
2022/05/12 20:53:20;;;;;;;;;;;;;;;;;;5093360;28;19916;-65
2022/05/12 20:55:47;;;;;;;;;;;;;;;;;;5092699;28;20276;-65
2022/05/12 20:58:13;;;;;;;;;;;;;;;;;;5092015;28;19915;-65
2022/05/12 21:00:39;;;;;;;;;;;;;;;;;;5091830;28;19916;-64
2022/05/12 21:03:05;;;;;;;;;;;;;;;;;;5092762;28;20039;-65
2022/05/12 21:05:31;;;;;;;;;;;;;;;;;;5093512;28;19908;-65
2022/05/12 21:07:57;;;;;;;;;;;;;;;;;;5092336;28;19912;-65
2022/05/12 21:10:23;;;;;;;;;;;;;;;;;;5092840;28;19916;-65
2022/05/12 21:12:49;;;;;;;;;;;;;;;;;;5092043;28;19981;-65
2022/05/12 21:15:15;;;;;;;;;;;;;;;;;;5093015;28;19908;-64
2022/05/12 21:17:41;;;;;;;;;;;;;;;;;;5084097;28;19912;-64
2022/05/12 21:20:06;;;;;;;;;;;;;;;;;;5070722;28;20367;-64
2022/05/12 21:22:32;;;;;;;;;;;;;;;;;;5072134;28;19996;-64
2022/05/12 21:24:58;;;;;;;;;;;;;;;;;;5071955;28;19916;-64
2022/05/12 21:27:24;;;;;;;;;;;;;;;;;;5077084;28;20314;-64
2022/05/12 21:29:50;;;;;;;;;;;;;;;;;;5091968;28;19916;-65
2022/05/12 21:32:18;;;;;;;;;;;;;;;;;;5092368;28;19915;-65
2022/05/12 21:34:44;;;;;;;;;;;;;;;;;;5092183;28;19908;-65
2022/05/12 21:37:10;;;;;;;;;;;;;;;;;;5092974;28;20276;-65
2022/05/12 21:39:35;;;;;;;;;;;;;;;;;;5093947;28;19947;-65
2022/05/12 21:42:01;;;;;;;;;;;;;;;;;;5082572;28;19912;-65
2022/05/12 21:44:27;;;;;;;;;;;;;;;;;;5087762;28;19923;-65
2022/05/12 21:46:53;;;;;;;;;;;;;;;;;;5074923;28;19961;-64
2022/05/12 21:49:19;;;;;;;;;;;;;;;;;;5093941;28;20332;-65
2022/05/12 21:51:45;;;;;;;;;;;;;;;;;;5093636;28;19915;-65
2022/05/12 21:54:11;;;;;;;;;;;;;;;;;;5092238;28;19917;-65
2022/05/12 21:56:37;;;;;;;;;;;;;;;;;;5093531;28;19908;-64
2022/05/12 22:01:48;;;;;;;;;;;;;;;;;;5093246;28;19915;-65
2022/05/12 22:04:17;;;;;;;;;;;;;;;;;;5093448;28;20003;-64
2022/05/12 22:06:44;;;;;;;;;;;;;;;;;;5093364;28;19938;-65
2022/05/12 22:09:10;;;;;;;;;;;;;;;;;;5092507;28;19912;-65
2022/05/12 22:14:20;;;;;;;;;;;;;;;;;;5093057;28;20283;-65
2022/05/12 22:16:46;;;;;;;;;;;;;;;;;;5093161;28;19908;-65
2022/05/12 22:19:12;;;;;;;;;;;;;;;;;;5092634;28;19961;-65
2022/05/12 22:21:38;;;;;;;;;;;;;;;;;;5093469;28;20371;-65
2022/05/12 22:24:04;;;;;;;;;;;;;;;;;;5091943;28;20020;-65
2022/05/12 22:26:30;;;;;;;;;;;;;;;;;;5093120;28;19999;-65
2022/05/12 22:28:55;;;;;;;;;;;;;;;;;;5092501;28;19962;-65
2022/05/12 22:31:21;;;;;;;;;;;;;;;;;;5093054;28;20361;-65
2022/05/12 22:33:48;;;;;;;;;;;;;;;;;;5093011;28;19950;-65
2022/05/12 22:36:14;;;;;;;;;;;;;;;;;;5092344;28;19909;-65
2022/05/12 22:38:40;;;;;;;;;;;;;;;;;;5092637;28;19914;-65
2022/05/12 22:41:06;;;;;;;;;;;;;;;;;;5086995;28;19913;-65
2022/05/12 22:43:31;;;;;;;;;;;;;;;;;;5088093;28;19920;-65
2022/05/12 22:45:57;;;;;;;;;;;;;;;;;;5079523;28;19977;-65
2022/05/12 22:48:23;;;;;;;;;;;;;;;;;;5081973;28;20217;-65
2022/05/12 22:50:49;;;;;;;;;;;;;;;;;;5081810;28;20360;-65
2022/05/12 22:53:15;;;;;;;;;;;;;;;;;;5079419;28;19923;-65
2022/05/12 22:55:41;;;;;;;;;;;;;;;;;;5081187;28;19908;-65
2022/05/12 22:58:07;;;;;;;;;;;;;;;;;;5082529;28;19908;-65
2022/05/12 23:00:34;;;;;;;;;;;;;;;;;;5080301;28;19916;-65
2022/05/12 23:03:00;;;;;;;;;;;;;;;;;;5081348;28;19909;-65
2022/05/12 23:05:26;;;;;;;;;;;;;;;;;;5081831;28;19915;-65
2022/05/12 23:07:52;;;;;;;;;;;;;;;;;;5085343;28;19916;-66
2022/05/12 23:10:18;;;;;;;;;;;;;;;;;;5086407;28;19912;-65
2022/05/12 23:12:44;;;;;;;;;;;;;;;;;;5083366;28;19912;-65
2022/05/12 23:15:10;;;;;;;;;;;;;;;;;;5084672;28;20038;-65
2022/05/12 23:17:36;;;;;;;;;;;;;;;;;;5086540;28;19913;-65
2022/05/12 23:22:46;;;;;;;;;;;;;;;;;;5084678;28;20054;-65
2022/05/12 23:25:12;;;;;;;;;;;;;;;;;;5082988;28;20374;-65
2022/05/12 23:27:38;;;;;;;;;;;;;;;;;;5085752;28;19915;-65
2022/05/12 23:30:04;;;;;;;;;;;;;;;;;;5084044;28;20435;-65
2022/05/12 23:32:30;;;;;;;;;;;;;;;;;;5083520;28;19913;-65
2022/05/12 23:34:56;;;;;;;;;;;;;;;;;;5083090;28;20427;-65